Time;durP1;ratioP1;P1;durP2;ratioP2;P2;SDS_P1;SDS_P2;PMS_P1;PMS_P2;Temp;Humidity;BMP_temperature;BMP_pressure;BME280_temperature;BME280_humidity;BME280_pressure;Samples;Min_cycle;Max_cycle;Signal;HPM_P1;HPM_P2
2023/08/12 00:01:01;;;;;;;2.13;1.83;;;;;;;12.98;60.47;97654.28;6253528;28;20123;-68
2023/08/12 00:04:04;;;;;;;2.83;1.70;;;;;;;12.90;60.39;97645.97;6270648;28;20469;-69
2023/08/12 00:07:09;;;;;;;1.83;1.67;;;;;;;12.86;60.73;97655.06;6253467;28;20045;-67
2023/08/12 00:10:15;;;;;;;2.58;1.77;;;;;;;12.79;60.78;97648.44;6271000;28;20132;-68
2023/08/12 00:13:20;;;;;;;4.05;2.00;;;;;;;12.77;60.84;97655.63;6270737;28;20079;-68
2023/08/12 00:16:25;;;;;;;2.38;1.83;;;;;;;12.75;60.83;97657.50;6270886;28;20178;-69
2023/08/12 00:19:30;;;;;;;4.00;1.77;;;;;;;12.75;61.06;97668.06;6270946;28;20151;-68
2023/08/12 00:22:35;;;;;;;3.60;1.80;;;;;;;12.74;61.18;97663.75;6270646;28;20182;-68
2023/08/12 00:25:39;;;;;;;3.72;1.85;;;;;;;12.71;61.30;97663.91;6270609;28;20400;-69
2023/08/12 00:28:43;;;;;;;2.88;2.20;;;;;;;12.77;61.24;97671.47;6270357;28;20431;-69
2023/08/12 00:31:48;;;;;;;3.58;2.10;;;;;;;12.81;61.21;97672.97;6270447;28;20055;-67
2023/08/12 00:34:52;;;;;;;2.58;2.05;;;;;;;12.76;61.19;97675.03;6270262;28;20539;-69
2023/08/12 00:37:57;;;;;;;3.35;1.90;;;;;;;12.72;61.39;97673.53;6270169;28;20179;-68
2023/08/12 00:41:04;;;;;;;4.25;2.50;;;;;;;12.81;61.47;97680.88;6270055;28;20084;-68
2023/08/12 00:44:09;;;;;;;3.38;2.50;;;;;;;12.84;61.39;97677.22;6270276;28;20183;-69
2023/08/12 00:47:15;;;;;;;5.55;2.10;;;;;;;12.88;61.39;97679.59;6252853;28;20171;-68
2023/08/12 00:50:21;;;;;;;5.43;2.33;;;;;;;12.91;61.13;97679.41;6269922;28;20143;-68
2023/08/12 00:53:26;;;;;;;3.10;2.20;;;;;;;12.93;61.31;97684.56;6252295;28;20183;-68
2023/08/12 00:56:32;;;;;;;4.68;2.58;;;;;;;12.93;61.07;97682.78;6251585;28;20147;-68
2023/08/12 00:59:37;;;;;;;4.95;2.75;;;;;;;12.96;60.97;97687.88;6269753;28;20120;-68
2023/08/12 01:02:47;;;;;;;8.43;3.58;;;;;;;13.03;61.10;97691.00;6269573;28;20500;-67
2023/08/12 01:05:52;;;;;;;5.95;2.47;;;;;;;13.08;60.86;97688.94;6269608;28;20174;-68
2023/08/12 01:08:57;;;;;;;6.07;2.72;;;;;;;13.14;60.81;97695.63;6269566;28;20496;-68
2023/08/12 01:12:32;;;;;;;8.00;2.90;;;;;;;13.19;60.66;97690.88;6251846;28;20087;-68
2023/08/12 01:15:38;;;;;;;5.65;2.63;;;;;;;13.20;60.57;97689.94;6268538;28;20419;-68
2023/08/12 01:18:44;;;;;;;8.20;3.15;;;;;;;13.19;60.66;97693.53;6269485;28;20194;-69
2023/08/12 01:21:49;;;;;;;6.32;3.17;;;;;;;13.21;60.65;97691.63;6251119;28;20151;-70
2023/08/12 01:24:53;;;;;;;9.45;3.40;;;;;;;13.22;60.64;97688.06;6268951;28;20049;-68
2023/08/12 01:27:58;;;;;;;10.85;3.85;;;;;;;13.24;60.60;97702.84;6269310;28;20423;-68
2023/08/12 01:31:12;;;;;;;8.27;3.88;;;;;;;13.29;60.39;97701.78;6269086;28;20183;-68
2023/08/12 01:34:42;;;;;;;6.97;3.42;;;;;;;13.32;60.54;97704.22;6269264;28;20491;-68
2023/08/12 01:37:50;;;;;;;8.23;3.35;;;;;;;13.37;60.49;97702.97;6266297;28;20127;-68
2023/08/12 01:40:56;;;;;;;6.13;3.20;;;;;;;13.50;60.11;97696.91;6268964;28;20114;-68
2023/08/12 01:44:02;;;;;;;8.43;3.60;;;;;;;13.60;59.84;97698.03;6269097;28;20170;-68
2023/08/12 01:47:08;;;;;;;4.68;3.45;;;;;;;13.62;59.94;97702.28;6269000;28;20136;-69
2023/08/12 01:50:13;;;;;;;3.95;3.20;;;;;;;13.58;59.84;97700.75;6269132;28;20091;-69
2023/08/12 01:53:18;;;;;;;5.05;3.38;;;;;;;13.61;60.20;97705.00;6268936;28;20542;-68
2023/08/12 01:56:22;;;;;;;5.03;3.72;;;;;;;13.64;60.26;97703.03;6268869;28;20051;-69
2023/08/12 01:59:26;;;;;;;6.75;3.67;;;;;;;13.68;60.16;97701.03;6268823;28;20131;-68
2023/08/12 02:02:31;;;;;;;5.55;3.97;;;;;;;13.74;60.07;97705.94;6268453;28;20532;-68
2023/08/12 02:05:37;;;;;;;5.18;3.90;;;;;;;13.83;59.95;97710.63;6268974;28;20187;-68
2023/08/12 02:08:41;;;;;;;4.53;3.08;;;;;;;13.84;60.05;97707.06;6268646;28;20111;-67
2023/08/12 02:11:46;;;;;;;7.15;3.90;;;;;;;13.95;60.18;97713.41;6268681;28;20051;-66
2023/08/12 02:14:51;;;;;;;4.78;3.72;;;;;;;14.05;59.91;97712.72;6268707;28;20182;-69
2023/08/12 02:17:55;;;;;;;6.70;4.43;;;;;;;14.18;60.00;97715.41;6268627;28;20500;-68
2023/08/12 02:20:59;;;;;;;7.85;4.85;;;;;;;14.29;59.80;97718.19;6268956;28;20041;-68
2023/08/12 02:24:03;;;;;;;6.25;4.30;;;;;;;14.38;59.51;97707.00;6268791;28;20136;-69
2023/08/12 02:27:08;;;;;;;11.65;7.88;;;;;;;14.52;59.73;97724.66;6270599;28;20126;-67
2023/08/12 02:30:11;;;;;;;8.25;5.22;;;;;;;14.63;59.31;97715.13;6273242;28;20072;-68
2023/08/12 02:33:15;;;;;;;6.07;3.17;;;;;;;14.78;58.52;97717.56;6273518;28;20546;-69
2023/08/12 02:36:20;;;;;;;3.50;2.55;;;;;;;14.89;57.84;97715.97;6272841;28;20132;-69
2023/08/12 02:39:25;;;;;;;3.08;2.78;;;;;;;15.01;57.22;97715.16;6273215;28;20044;-68
2023/08/12 02:42:30;;;;;;;5.60;2.45;;;;;;;15.18;56.23;97714.81;6272922;28;20131;-68
2023/08/12 02:45:35;;;;;;;3.90;2.50;;;;;;;15.36;55.16;97720.63;6272777;28;20190;-68
2023/08/12 02:48:40;;;;;;;3.60;2.60;;;;;;;15.41;54.55;97720.31;6272677;28;20040;-68
2023/08/12 02:51:45;;;;;;;3.08;2.03;;;;;;;15.45;54.36;97709.34;6255282;28;20170;-68
2023/08/12 02:54:50;;;;;;;6.05;2.78;;;;;;;15.56;54.43;97713.91;6272781;28;20143;-68
2023/08/12 02:57:55;;;;;;;8.27;4.93;;;;;;;15.67;55.07;97727.22;6272611;28;20072;-68
2023/08/12 03:00:59;;;;;;;6.00;3.00;;;;;;;15.78;54.86;97721.19;6272605;28;20140;-68
2023/08/12 03:04:05;;;;;;;6.57;3.00;;;;;;;15.89;54.50;97717.75;6272938;28;20314;-68
2023/08/12 03:07:10;;;;;;;4.30;2.72;;;;;;;15.96;54.43;97719.00;6272710;28;20495;-68
2023/08/12 03:10:15;;;;;;;3.78;2.80;;;;;;;16.05;54.52;97722.78;6254679;28;20040;-68
2023/08/12 03:13:19;;;;;;;2.92;1.90;;;;;;;16.19;53.91;97719.13;6272581;28;20523;-68
2023/08/12 03:16:23;;;;;;;2.28;1.52;;;;;;;16.39;52.39;97715.84;6272157;28;20139;-68
2023/08/12 03:19:28;;;;;;;4.93;2.00;;;;;;;16.63;51.59;97722.91;6272285;28;20048;-68
2023/08/12 03:22:33;;;;;;;2.28;1.50;;;;;;;16.80;50.99;97719.84;6272065;28;20098;-69
2023/08/12 03:25:37;;;;;;;2.42;2.00;;;;;;;17.01;50.45;97712.88;6272022;28;20512;-69
2023/08/12 03:28:42;;;;;;;2.40;1.90;;;;;;;17.15;50.25;97714.44;6271973;28;20057;-68
2023/08/12 03:31:47;;;;;;;7.18;1.95;;;;;;;17.24;49.83;97718.22;6271909;28;20095;-68
2023/08/12 03:34:52;;;;;;;2.63;1.30;;;;;;;17.39;49.41;97714.34;6271882;28;20092;-68
2023/08/12 03:37:57;;;;;;;1.88;1.58;;;;;;;17.45;49.43;97713.84;6270720;28;20206;-68
2023/08/12 03:41:03;;;;;;;8.07;4.80;;;;;;;17.69;48.42;97713.72;6271743;28;20186;-68
2023/08/12 03:44:07;;;;;;;3.97;2.15;;;;;;;17.79;48.14;97719.16;6271991;28;20103;-68
2023/08/12 03:47:14;;;;;;;2.50;1.63;;;;;;;18.00;46.70;97715.72;6271604;28;20121;-68
2023/08/12 03:50:19;;;;;;;2.28;1.50;;;;;;;18.05;46.95;97733.03;6271584;28;20630;-68
2023/08/12 03:53:24;;;;;;;1.50;1.40;;;;;;;18.10;47.22;97724.66;6271331;28;20071;-69
2023/08/12 03:56:30;;;;;;;2.65;1.58;;;;;;;18.19;46.54;97734.56;6271111;28;20531;-68
2023/08/12 03:59:35;;;;;;;2.85;1.38;;;;;;;18.38;45.75;97729.41;6270905;28;20128;-69
2023/08/12 04:02:40;;;;;;;5.68;1.88;;;;;;;18.48;45.13;97732.13;6271428;28;20531;-69
2023/08/12 04:05:54;;;;;;;6.63;1.90;;;;;;;18.56;44.54;97718.19;6271291;28;20135;-68
2023/08/12 04:08:59;;;;;;;2.47;1.38;;;;;;;18.69;43.15;97726.84;6253416;28;20496;-69
2023/08/12 04:12:03;;;;;;;2.42;1.77;;;;;;;18.84;42.63;97717.56;6270815;28;20174;-68
2023/08/12 04:15:06;;;;;;;2.92;1.15;;;;;;;18.91;42.34;97709.03;6270881;28;20048;-69
2023/08/12 04:18:11;;;;;;;1.83;1.00;;;;;;;19.05;41.88;97714.03;6270420;28;20131;-69
2023/08/12 04:21:16;;;;;;;1.83;0.90;;;;;;;19.18;40.72;97714.69;6270607;28;20041;-69
2023/08/12 04:24:21;;;;;;;3.72;2.42;;;;;;;19.24;39.91;97714.13;6270444;28;20075;-68
2023/08/12 04:27:25;;;;;;;2.80;1.85;;;;;;;19.33;39.50;97708.97;6238409;28;20140;-69
2023/08/12 04:30:30;;;;;;;2.25;1.63;;;;;;;19.56;38.45;97702.50;6245808;28;20444;-69
2023/08/12 04:33:35;;;;;;;1.45;1.00;;;;;;;19.67;36.98;97709.56;6245606;28;20100;-69
2023/08/12 04:36:38;;;;;;;1.70;0.77;;;;;;;19.71;37.14;97703.81;6227720;28;20428;-69
2023/08/12 04:39:42;;;;;;;1.63;1.00;;;;;;;19.89;36.30;97706.66;6245285;28;20046;-69
2023/08/12 04:42:47;;;;;;;1.38;0.90;;;;;;;19.90;36.51;97696.81;6245217;28;20210;-69
2023/08/12 04:45:53;;;;;;;7.68;4.43;;;;;;;19.91;36.74;97699.38;6245574;28;20401;-69
2023/08/12 04:49:00;;;;;;;2.53;1.60;;;;;;;20.16;36.18;97697.16;6245607;28;20187;-69
2023/08/12 04:52:06;;;;;;;0.77;0.77;;;;;;;20.29;35.64;97695.03;6227652;28;20053;-69
2023/08/12 04:55:11;;;;;;;2.85;1.50;;;;;;;21.53;34.47;97702.16;6245029;28;20576;-69
2023/08/12 04:58:17;;;;;;;1.63;0.85;;;;;;;26.16;28.62;97702.59;6245009;28;20140;-68
2023/08/12 05:01:21;;;;;;;1.38;0.88;;;;;;;30.37;23.61;97706.16;6245441;28;20087;-67
2023/08/12 05:04:26;;;;;;;2.25;0.68;;;;;;;33.86;19.94;97723.41;6244979;28;20132;-67
2023/08/12 05:07:31;;;;;;;1.52;0.65;;;;;;;36.35;17.24;97723.59;6244713;28;20206;-69
2023/08/12 05:10:36;;;;;;;2.17;0.80;;;;;;;37.26;15.48;97723.66;6244702;28;20040;-68
2023/08/12 05:13:41;;;;;;;0.90;0.60;;;;;;;38.47;15.38;97716.50;6245088;28;20091;-68
2023/08/12 05:16:46;;;;;;;1.05;0.70;;;;;;;39.95;14.07;97720.50;6244723;28;20139;-67
2023/08/12 05:19:50;;;;;;;3.50;0.70;;;;;;;41.08;13.35;97713.41;6244545;28;20207;-66
2023/08/12 05:22:55;;;;;;;6.68;1.00;;;;;;;42.10;12.57;97720.69;6244737;28;20517;-68
2023/08/12 05:26:02;;;;;;;1.05;0.40;;;;;;;43.15;11.87;97718.72;6246542;28;20037;-68
2023/08/12 05:29:06;;;;;;;1.58;0.50;;;;;;;44.70;10.50;97716.66;6269171;28;20088;-68
2023/08/12 05:32:13;;;;;;;1.67;0.60;;;;;;;43.33;10.55;97708.84;6268635;28;20052;-68
2023/08/12 05:35:17;;;;;;;0.70;0.30;;;;;;;43.42;10.60;97702.38;6251323;28;20049;-68
2023/08/12 05:38:21;;;;;;;1.75;0.80;;;;;;;43.22;10.63;97706.16;6269015;28;20143;-68
2023/08/12 05:41:27;;;;;;;5.60;2.38;;;;;;;43.03;10.92;97699.66;6268952;28;20103;-68
2023/08/12 05:44:32;;;;;;;1.60;0.60;;;;;;;43.14;10.58;97695.72;6269066;28;20136;-68
2023/08/12 05:47:37;;;;;;;2.30;0.88;;;;;;;43.82;10.42;97700.31;6250922;28;20533;-69
2023/08/12 05:50:41;;;;;;;6.47;0.70;;;;;;;44.30;9.85;97700.28;6268935;28;20044;-68
2023/08/12 05:53:46;;;;;;;1.88;0.50;;;;;;;44.26;10.15;97699.22;6269108;28;20045;-69
2023/08/12 05:56:51;;;;;;;2.42;0.40;;;;;;;45.35;9.65;97697.28;6268937;28;20131;-68
2023/08/12 05:59:55;;;;;;;1.15;0.70;;;;;;;44.91;9.61;97690.28;6268855;28;20131;-69
2023/08/12 06:02:59;;;;;;;1.58;0.38;;;;;;;44.62;9.87;97686.81;6272987;28;20495;-68
2023/08/12 06:06:04;;;;;;;1.35;0.40;;;;;;;45.35;9.69;97680.63;6274037;28;20175;-68
2023/08/12 06:09:09;;;;;;;1.80;0.70;;;;;;;46.36;9.23;97670.59;6273617;28;20182;-69
2023/08/12 06:12:14;;;;;;;2.72;1.05;;;;;;;46.01;9.69;97670.22;6273542;28;20535;-68
2023/08/12 06:15:19;;;;;;;0.90;0.70;;;;;;;46.18;9.65;97669.56;6273464;28;20079;-68
2023/08/12 06:18:24;;;;;;;1.80;0.73;;;;;;;45.52;9.30;97665.34;6273211;28;20565;-68
2023/08/12 06:21:27;;;;;;;1.73;0.43;;;;;;;45.88;9.36;97666.28;6273149;28;20508;-68
2023/08/12 06:24:32;;;;;;;2.67;0.60;;;;;;;45.28;9.47;97660.75;6273478;28;20215;-68
2023/08/12 06:27:38;;;;;;;1.42;0.55;;;;;;;44.95;9.24;97649.66;6273262;28;20091;-69
2023/08/12 06:30:47;;;;;;;7.20;0.77;;;;;;;45.11;9.49;97658.53;6273308;28;20129;-68
2023/08/12 06:33:52;;;;;;;2.13;0.60;;;;;;;45.29;9.47;97648.50;6273306;28;20047;-68
2023/08/12 06:36:57;;;;;;;3.03;0.60;;;;;;;45.60;9.26;97653.50;6273537;28;20139;-68
2023/08/12 06:40:03;;;;;;;7.43;3.47;;;;;;;45.18;9.09;97652.59;6273249;28;20175;-68
2023/08/12 06:43:08;;;;;;;2.72;1.98;;;;;;;45.16;9.34;97643.78;6272665;28;20045;-68
2023/08/12 06:46:13;;;;;;;1.02;0.52;;;;;;;46.15;9.25;97656.28;6272945;28;20134;-69
2023/08/12 06:49:18;;;;;;;1.80;0.30;;;;;;;47.87;8.31;97651.41;6272872;28;20519;-68
2023/08/12 06:52:22;;;;;;;0.40;0.30;;;;;;;49.38;7.14;97651.63;6272643;28;20132;-69
2023/08/12 06:55:27;;;;;;;2.75;0.50;;;;;;;49.16;7.38;97658.25;6272660;28;21090;-69
2023/08/12 06:58:31;;;;;;;4.53;0.47;;;;;;;49.31;7.34;97659.69;6272645;28;20427;-68
2023/08/12 07:01:36;;;;;;;1.67;0.65;;;;;;;50.42;6.96;97647.44;6272472;28;20083;-69
2023/08/12 07:04:40;;;;;;;4.05;0.90;;;;;;;50.48;6.71;97650.88;6272224;28;20041;-68
2023/08/12 07:07:45;;;;;;;0.70;0.50;;;;;;;50.72;6.83;97651.00;6272377;28;20128;-69
2023/08/12 07:10:50;;;;;;;1.00;0.30;;;;;;;51.08;6.45;97646.75;6272365;28;20143;-69
2023/08/12 07:13:55;;;;;;;1.90;0.55;;;;;;;51.07;6.37;97633.88;6252784;28;20052;-68
2023/08/12 07:16:59;;;;;;;2.22;0.60;;;;;;;49.94;6.63;97636.75;6272019;28;20140;-69
2023/08/12 07:20:04;;;;;;;0.50;0.30;;;;;;;47.86;7.42;97631.06;6272014;28;20106;-68
2023/08/12 07:23:09;;;;;;;0.60;0.45;;;;;;;47.32;7.69;97623.94;6272007;28;20044;-68
2023/08/12 07:26:14;;;;;;;5.90;0.75;;;;;;;46.73;7.92;97616.53;6271639;28;20187;-68
2023/08/12 07:29:18;;;;;;;2.47;0.60;;;;;;;48.10;7.83;97621.41;6271795;28;20437;-68
2023/08/12 07:32:23;;;;;;;0.90;0.60;;;;;;;50.28;6.81;97619.75;6271572;28;20155;-69
2023/08/12 07:35:27;;;;;;;4.10;0.90;;;;;;;51.10;6.53;97623.94;6271480;28;20127;-69
2023/08/12 07:38:31;;;;;;;3.28;0.70;;;;;;;52.10;5.93;97621.72;6271523;28;20040;-69
2023/08/12 07:41:36;;;;;;;3.00;0.88;;;;;;;51.99;5.35;97618.53;6271608;28;20103;-69
2023/08/12 07:44:40;;;;;;;2.25;0.60;;;;;;;48.88;6.78;97593.56;6271354;28;20135;-69
2023/08/12 07:47:44;;;;;;;1.52;0.47;;;;;;;48.17;7.34;97588.31;6271355;28;20151;-69
2023/08/12 07:50:54;;;;;;;1.15;0.70;;;;;;;48.09;7.01;97587.13;6271476;28;20563;-69
2023/08/12 07:53:58;;;;;;;0.70;0.55;;;;;;;47.64;7.23;97575.38;6271319;28;20131;-68
2023/08/12 07:57:04;;;;;;;2.08;0.60;;;;;;;48.02;7.59;97581.22;6271302;28;20045;-69
2023/08/12 08:00:09;;;;;;;2.22;0.50;;;;;;;49.26;6.82;97583.59;6271249;28;20048;-69
2023/08/12 08:03:13;;;;;;;0.75;0.40;;;;;;;50.96;6.54;97576.59;6271021;28;20494;-69
2023/08/12 08:06:18;;;;;;;1.35;0.40;;;;;;;51.63;5.45;97589.31;6270932;28;20071;-69
2023/08/12 08:09:23;;;;;;;1.38;0.50;;;;;;;49.61;6.26;97579.50;6271011;28;20530;-68
2023/08/12 08:12:28;;;;;;;1.05;0.57;;;;;;;48.59;6.85;97582.25;6270809;28;20126;-69
2023/08/12 08:15:33;;;;;;;2.40;0.43;;;;;;;48.92;7.02;97574.13;6270767;28;20142;-68
2023/08/12 08:18:40;;;;;;;1.20;0.55;;;;;;;49.92;6.74;97566.31;6270574;28;20500;-70
2023/08/12 08:21:45;;;;;;;2.22;0.43;;;;;;;50.36;6.53;97570.44;6270907;28;20163;-69
2023/08/12 08:24:50;;;;;;;0.73;0.50;;;;;;;50.69;6.55;97573.28;6270383;28;20041;-69
2023/08/12 08:27:55;;;;;;;1.58;0.60;;;;;;;50.36;6.54;97561.22;6270406;28;20602;-69
2023/08/12 08:30:58;;;;;;;1.40;0.40;;;;;;;50.37;6.39;97560.03;6270408;28;20040;-69
2023/08/12 08:34:03;;;;;;;0.60;0.40;;;;;;;50.79;6.59;97566.41;6270310;28;20131;-70
2023/08/12 08:37:07;;;;;;;0.65;0.40;;;;;;;50.86;6.46;97555.44;6270634;28;20041;-69
2023/08/12 08:40:12;;;;;;;1.98;0.52;;;;;;;50.64;6.61;97565.06;6270232;28;20083;-69
2023/08/12 08:43:22;;;;;;;2.28;0.45;;;;;;;51.25;6.15;97566.41;6270149;28;20143;-70
2023/08/12 08:46:27;;;;;;;1.27;0.30;;;;;;;51.62;5.87;97565.25;6270183;28;20485;-69
2023/08/12 08:49:33;;;;;;;3.75;2.58;;;;;;;51.10;6.17;97565.94;6270531;28;20184;-69
2023/08/12 08:52:38;;;;;;;2.03;1.10;;;;;;;51.00;6.49;97557.97;6270382;28;20135;-69
2023/08/12 08:55:44;;;;;;;0.88;0.47;;;;;;;51.72;6.08;97563.16;6270072;28;20037;-69
2023/08/12 08:58:49;;;;;;;0.85;0.50;;;;;;;51.06;6.17;97552.94;6269643;28;20090;-69
2023/08/12 09:01:53;;;;;;;2.45;0.70;;;;;;;50.17;6.51;97551.31;6269557;28;20044;-69
2023/08/12 09:05:00;;;;;;;1.83;0.60;;;;;;;49.41;7.13;97550.31;6269929;28;20614;-69
2023/08/12 09:08:06;;;;;;;0.68;0.40;;;;;;;49.41;6.94;97543.91;6251801;28;20124;-69
2023/08/12 09:11:11;;;;;;;1.05;0.63;;;;;;;49.94;7.00;97544.41;6269704;28;20078;-69
2023/08/12 09:14:16;;;;;;;1.10;0.70;;;;;;;48.84;7.19;97545.06;6269489;28;20041;-70
2023/08/12 09:17:21;;;;;;;3.47;0.65;;;;;;;47.18;8.18;97551.59;6269196;28;20083;-69
2023/08/12 09:20:27;;;;;;;0.80;0.50;;;;;;;45.23;9.34;97528.31;6269187;28;20519;-69
2023/08/12 09:23:43;;;;;;;1.98;0.60;;;;;;;46.56;8.73;97532.88;6269376;28;20049;-71
2023/08/12 09:26:53;;;;;;;2.30;0.70;;;;;;;47.96;8.09;97532.31;6269063;28;20221;-69
2023/08/12 09:29:57;;;;;;;1.55;1.10;;;;;;;49.13;7.95;97532.34;6269255;28;20127;-69
2023/08/12 09:33:05;;;;;;;2.83;0.85;;;;;;;49.19;7.50;97528.19;6269119;28;20161;-69
2023/08/12 09:36:10;;;;;;;0.90;0.60;;;;;;;49.16;8.01;97540.03;6268494;28;20086;-70
2023/08/12 09:39:15;;;;;;;1.40;0.50;;;;;;;46.35;8.82;97525.06;6268822;28;20722;-70
2023/08/12 09:42:20;;;;;;;0.73;0.60;;;;;;;43.79;10.17;97508.81;6268928;28;20132;-70
2023/08/12 09:45:25;;;;;;;1.77;0.88;;;;;;;44.35;9.80;97514.34;6268866;28;20487;-70
2023/08/12 09:48:30;;;;;;;2.63;0.80;;;;;;;45.09;9.50;97507.22;6268758;28;20127;-70
2023/08/12 09:51:40;;;;;;;1.95;0.75;;;;;;;44.77;9.76;97503.38;6268963;28;20155;-71
2023/08/12 09:54:47;;;;;;;1.63;0.50;;;;;;;44.27;10.20;97494.78;6268521;28;20124;-71
2023/08/12 09:57:54;;;;;;;1.60;0.70;;;;;;;44.66;9.66;97504.69;6268819;28;20086;-71
2023/08/12 10:00:59;;;;;;;1.30;0.63;;;;;;;45.35;9.46;97502.78;6268667;28;20083;-70
2023/08/12 10:04:12;;;;;;;2.90;0.95;;;;;;;44.95;8.99;97498.88;6268519;28;20068;-70
2023/08/12 10:07:20;;;;;;;1.20;0.85;;;;;;;45.19;9.48;97490.38;6268724;28;20095;-70
2023/08/12 10:10:25;;;;;;;0.88;0.45;;;;;;;44.02;9.83;97502.38;6268834;28;20041;-70
2023/08/12 10:13:30;;;;;;;1.02;0.68;;;;;;;43.28;10.18;97497.25;6268797;28;20080;-70
2023/08/12 10:16:36;;;;;;;2.33;0.85;;;;;;;43.98;9.93;97493.03;6251478;28;20522;-70
2023/08/12 10:19:47;;;;;;;0.90;0.50;;;;;;;44.86;9.45;97482.09;6268266;28;20041;-70
2023/08/12 10:22:54;;;;;;;1.85;0.70;;;;;;;45.15;8.91;97483.78;6268629;28;20041;-70
2023/08/12 10:26:00;;;;;;;2.00;0.93;;;;;;;44.44;9.08;97489.50;6268437;28;20083;-70
2023/08/12 10:29:05;;;;;;;0.95;0.80;;;;;;;44.19;9.49;97476.03;6268465;28;20566;-70
2023/08/12 10:32:11;;;;;;;0.85;0.60;;;;;;;44.07;9.27;97473.75;6250959;28;20041;-70
2023/08/12 10:35:15;;;;;;;1.75;0.93;;;;;;;43.11;9.85;97474.75;6268185;28;20175;-70
2023/08/12 10:38:21;;;;;;;1.95;1.58;;;;;;;42.67;10.07;97470.25;6268225;28;20049;-70
2023/08/12 10:41:27;;;;;;;0.93;0.65;;;;;;;42.50;10.55;97472.63;6268584;28;20533;-70
2023/08/12 10:44:52;;;;;;;0.82;0.65;;;;;;;42.81;10.13;97470.41;6268296;28;20127;-70
2023/08/12 10:48:16;;;;;;;1.20;0.73;;;;;;;43.18;10.19;97464.16;6270430;28;20045;-70
2023/08/12 10:51:42;;;;;;;1.77;0.88;;;;;;;42.59;10.36;97462.56;6273102;28;20041;-70
2023/08/12 10:54:47;;;;;;;1.60;0.68;;;;;;;41.84;10.74;97458.22;6272829;28;20043;-71
2023/08/12 10:57:53;;;;;;;2.65;1.05;;;;;;;41.65;10.93;97448.94;6272435;28;20086;-70
2023/08/12 11:00:58;;;;;;;2.47;1.75;;;;;;;41.19;11.26;97451.91;6272486;28;20151;-69
2023/08/12 11:04:16;;;;;;;3.97;1.00;;;;;;;40.46;11.44;97444.09;6272822;28;20040;-70
2023/08/12 11:07:22;;;;;;;3.03;0.90;;;;;;;40.03;11.74;97436.13;6272657;28;20496;-69
2023/08/12 11:10:30;;;;;;;0.90;0.70;;;;;;;39.54;11.84;97425.56;6254534;28;20132;-71
2023/08/12 11:13:53;;;;;;;1.50;0.88;;;;;;;39.56;12.05;97436.31;6272173;28;20191;-70
2023/08/12 11:16:58;;;;;;;1.20;0.80;;;;;;;39.34;11.77;97428.28;6272071;28;20182;-70
2023/08/12 11:20:06;;;;;;;1.70;0.60;;;;;;;39.24;12.22;97429.88;6272173;28;20613;-69
2023/08/12 11:23:11;;;;;;;1.23;1.02;;;;;;;39.11;12.04;97430.38;6253935;28;20139;-69
2023/08/12 11:26:18;;;;;;;2.22;1.05;;;;;;;39.03;12.54;97417.13;6271370;28;20056;-70
2023/08/12 11:29:23;;;;;;;1.90;0.98;;;;;;;38.30;12.70;97420.53;6254282;28;20104;-70
2023/08/12 11:32:29;;;;;;;3.55;1.27;;;;;;;38.31;12.58;97422.22;6271646;28;20087;-70
2023/08/12 11:35:34;;;;;;;3.10;1.00;;;;;;;38.57;12.55;97420.47;6271783;28;20139;-69
2023/08/12 11:38:39;;;;;;;1.00;0.80;;;;;;;38.48;12.30;97415.75;6271663;28;20045;-70
2023/08/12 11:41:43;;;;;;;2.70;1.00;;;;;;;38.22;12.39;97423.81;6271340;28;20128;-69
2023/08/12 11:44:47;;;;;;;2.25;0.85;;;;;;;37.83;12.57;97413.03;6271658;28;20036;-70
2023/08/12 11:47:53;;;;;;;0.95;0.80;;;;;;;37.86;12.21;97412.50;6271596;28;20069;-70
2023/08/12 11:50:59;;;;;;;2.08;1.02;;;;;;;37.91;12.25;97409.78;6270968;28;20060;-69
2023/08/12 11:54:03;;;;;;;2.42;1.00;;;;;;;37.20;13.10;97400.81;6253514;28;20127;-69
2023/08/12 11:57:08;;;;;;;2.45;1.05;;;;;;;36.58;13.52;97394.59;6270886;28;20124;-69
2023/08/12 12:00:18;;;;;;;2.25;0.75;;;;;;;36.27;13.95;97397.94;6270267;28;20095;-70
2023/08/12 12:03:23;;;;;;;4.55;1.25;;;;;;;35.75;14.11;97397.13;6271003;28;20041;-70
2023/08/12 12:06:38;;;;;;;4.95;1.58;;;;;;;35.45;14.53;97396.56;6270925;28;20518;-68
2023/08/12 12:09:45;;;;;;;3.53;1.02;;;;;;;35.36;14.78;97387.06;6271009;28;20037;-69
2023/08/12 12:12:50;;;;;;;2.67;1.27;;;;;;;35.37;14.88;97391.47;6270981;28;20037;-68
2023/08/12 12:15:55;;;;;;;1.30;0.93;;;;;;;35.34;15.08;97391.97;6271046;28;20178;-70
2023/08/12 12:19:00;;;;;;;5.82;3.55;;;;;;;34.92;15.28;97384.84;6270939;28;20182;-69
2023/08/12 12:22:06;;;;;;;3.58;1.90;;;;;;;34.96;15.23;97379.69;6271142;28;20563;-70
2023/08/12 12:25:13;;;;;;;9.10;1.38;;;;;;;34.82;15.40;97382.75;6270709;28;20087;-70
2023/08/12 12:28:18;;;;;;;5.00;1.23;;;;;;;34.58;15.86;97381.13;6270267;28;20199;-70
2023/08/12 12:31:22;;;;;;;5.45;1.20;;;;;;;34.36;16.03;97384.44;6270804;28;20040;-69
2023/08/12 12:34:28;;;;;;;3.90;1.25;;;;;;;34.13;16.29;97374.38;6270478;28;20041;-70
2023/08/12 12:37:33;;;;;;;6.35;1.40;;;;;;;34.02;16.23;97377.06;6270421;28;20198;-69
2023/08/12 12:40:38;;;;;;;4.43;1.90;;;;;;;33.97;16.33;97392.28;6270039;28;20503;-69
2023/08/12 12:43:44;;;;;;;3.85;0.98;;;;;;;34.04;16.13;97391.31;6270010;28;20043;-69
2023/08/12 12:46:49;;;;;;;6.82;1.30;;;;;;;34.06;16.24;97389.22;6270096;28;20135;-69
2023/08/12 12:49:54;;;;;;;2.22;1.00;;;;;;;34.15;16.33;97387.78;6269945;28;20102;-70
2023/08/12 12:52:58;;;;;;;2.00;1.40;;;;;;;34.05;16.38;97398.47;6269854;28;20139;-70
2023/08/12 12:56:03;;;;;;;3.20;1.30;;;;;;;34.07;16.07;97393.59;6269938;28;20083;-70
2023/08/12 12:59:07;;;;;;;6.22;2.15;;;;;;;33.92;16.24;97389.41;6269703;28;20550;-69
2023/08/12 13:02:12;;;;;;;3.08;1.25;;;;;;;33.51;16.65;97393.81;6269569;28;20080;-72
2023/08/12 13:05:17;;;;;;;3.80;1.20;;;;;;;32.96;16.94;97390.41;6269263;28;20202;-70
2023/08/12 13:08:24;;;;;;;3.20;1.65;;;;;;;32.51;17.63;97388.81;6269530;28;20049;-70
2023/08/12 13:11:33;;;;;;;5.80;1.63;;;;;;;32.26;17.29;97388.03;6268577;28;20067;-70
2023/08/12 13:14:38;;;;;;;7.00;1.90;;;;;;;31.81;18.01;97393.63;6269625;28;20047;-70
2023/08/12 13:17:43;;;;;;;7.00;2.58;;;;;;;31.47;18.38;97390.34;6269247;28;20540;-70
2023/08/12 13:20:47;;;;;;;5.35;2.40;;;;;;;31.10;19.06;97392.84;6268960;28;20048;-70
2023/08/12 13:23:53;;;;;;;4.95;1.75;;;;;;;30.84;18.86;97385.66;6269221;28;20183;-70
2023/08/12 13:26:58;;;;;;;2.53;1.58;;;;;;;30.51;19.16;97389.28;6268869;28;20187;-69
2023/08/12 13:30:02;;;;;;;5.93;1.60;;;;;;;30.31;18.92;97394.75;6251854;28;20132;-70
2023/08/12 13:33:08;;;;;;;3.75;2.35;;;;;;;29.96;19.26;97386.88;6269336;28;20128;-69
2023/08/12 13:36:13;;;;;;;7.88;3.50;;;;;;;29.69;19.31;97401.47;6269290;28;20155;-69
2023/08/12 13:39:18;;;;;;;3.70;1.70;;;;;;;29.38;19.92;97392.00;6268946;28;20515;-70
2023/08/12 13:42:22;;;;;;;1.70;1.13;;;;;;;29.23;20.26;97402.22;6251232;28;20041;-70
2023/08/12 13:45:26;;;;;;;5.07;1.65;;;;;;;29.27;20.39;97398.03;6268874;28;20183;-69
2023/08/12 13:48:30;;;;;;;5.63;1.70;;;;;;;29.33;20.59;97402.66;6269058;28;20175;-69
2023/08/12 13:51:35;;;;;;;4.50;1.30;;;;;;;29.21;20.56;97412.41;6268874;28;20464;-69
2023/08/12 13:54:40;;;;;;;5.95;1.60;;;;;;;29.11;20.57;97399.28;6268795;28;20077;-69
2023/08/12 13:57:44;;;;;;;2.95;1.13;;;;;;;28.99;20.49;97407.13;6268205;28;20128;-69
2023/08/12 14:00:49;;;;;;;4.68;1.27;;;;;;;28.83;20.60;97411.00;6268432;28;20143;-69
2023/08/12 14:03:54;;;;;;;1.73;0.90;;;;;;;28.63;20.23;97410.09;6268233;28;20092;-69
2023/08/12 14:06:59;;;;;;;5.45;2.28;;;;;;;28.53;20.76;97413.16;6268286;28;20199;-69
2023/08/12 14:10:04;;;;;;;2.53;2.13;;;;;;;28.41;20.79;97417.44;6250984;28;20040;-70
2023/08/12 14:13:09;;;;;;;2.55;1.58;;;;;;;28.19;21.03;97411.25;6268294;28;20572;-70
2023/08/12 14:16:14;;;;;;;5.15;1.17;;;;;;;27.96;21.03;97416.91;6268723;28;20128;-69
2023/08/12 14:19:19;;;;;;;3.33;0.90;;;;;;;27.86;21.15;97413.75;6268252;28;20131;-69
2023/08/12 14:22:24;;;;;;;3.00;1.20;;;;;;;27.61;21.26;97411.41;6269628;28;20144;-69
2023/08/12 14:25:30;;;;;;;4.25;1.20;;;;;;;27.44;21.58;97413.53;6273731;28;20186;-69
2023/08/12 14:28:35;;;;;;;2.85;1.15;;;;;;;27.28;21.55;97409.22;6272738;28;20190;-69
2023/08/12 14:31:39;;;;;;;7.45;5.35;;;;;;;27.26;21.70;97416.69;6273467;28;20393;-69
2023/08/12 14:34:46;;;;;;;3.78;2.90;;;;;;;27.02;21.83;97419.72;6273220;28;20480;-70
2023/08/12 14:37:47;;;;;;;2.15;1.60;;;;;;;26.82;22.39;97414.91;6272884;28;20045;-69